createdAt,value
2022-08-03T00:02:20.386Z,65.50
2022-08-03T00:04:48.778Z,66.04
2022-08-03T00:07:17.233Z,64.66
2022-08-03T00:09:45.555Z,65.43
2022-08-03T00:12:14.176Z,66.46
2022-08-03T00:14:42.665Z,65.89
2022-08-03T00:17:14.158Z,67.05
2022-08-03T00:19:42.325Z,66.52
2022-08-03T00:22:10.402Z,66.80
2022-08-03T00:24:38.665Z,67.29
2022-08-03T00:27:06.831Z,67.59
2022-08-03T00:29:59.524Z,67.04
2022-08-03T00:32:26.636Z,67.66
2022-08-03T00:34:57.617Z,67.17
2022-08-03T00:37:41.527Z,67.58
2022-08-03T00:40:13.676Z,68.12
2022-08-03T00:42:50.660Z,67.66
2022-08-03T00:45:19.542Z,67.57
2022-08-03T00:47:49.261Z,67.95
2022-08-03T00:50:18.958Z,67.71
2022-08-03T00:52:48.411Z,68.15
2022-08-03T00:55:17.140Z,67.73
2022-08-03T00:57:45.508Z,67.42
2022-08-03T01:01:10.049Z,68.02
2022-08-03T01:03:39.970Z,67.75
2022-08-03T01:06:16.290Z,67.97
2022-08-03T01:08:49.720Z,68.91
2022-08-03T01:11:23.930Z,68.87
2022-08-03T01:14:04.190Z,69.05
2022-08-03T01:16:57.129Z,69.12
2022-08-03T01:19:42.915Z,69.23
2022-08-03T01:22:23.967Z,70.86
2022-08-03T01:25:07.317Z,71.51
2022-08-03T01:27:48.633Z,72.38
2022-08-03T01:30:18.579Z,72.26
2022-08-03T01:33:01.091Z,72.53
2022-08-03T01:35:38.739Z,71.62
2022-08-03T01:38:12.670Z,72.07
2022-08-03T01:40:42.546Z,71.77
2022-08-03T01:43:14.432Z,72.28
2022-08-03T01:46:04.800Z,70.55
2022-08-03T01:48:33.534Z,70.72
2022-08-03T01:51:02.247Z,72.01
2022-08-03T01:53:32.663Z,72.23
2022-08-03T01:56:03.745Z,71.99
2022-08-03T01:58:33.511Z,73.32
2022-08-03T02:01:04.492Z,73.54
2022-08-03T02:03:35.177Z,71.68
2022-08-03T02:07:01.238Z,73.33
2022-08-03T02:08:54.790Z,74.37
2022-08-03T02:11:23.341Z,76.16
2022-08-03T02:13:52.807Z,75.94
2022-08-03T02:16:24.741Z,71.87
2022-08-03T02:18:55.174Z,73.30
2022-08-03T02:21:56.746Z,74.18
2022-08-03T02:24:12.795Z,73.94
2022-08-03T02:26:42.855Z,73.84
2022-08-03T02:29:15.405Z,73.62
2022-08-03T02:31:46.500Z,73.49
2022-08-03T02:34:15.997Z,73.88
2022-08-03T02:36:47.611Z,74.14
2022-08-03T02:39:19.165Z,73.27
2022-08-03T02:41:53.103Z,73.74
2022-08-03T02:44:26.267Z,73.61
2022-08-03T02:47:02.295Z,74.52
2022-08-03T02:49:35.361Z,75.10
2022-08-03T02:52:19.653Z,74.76
2022-08-03T02:54:50.437Z,74.77
2022-08-03T02:57:19.967Z,75.97
2022-08-03T02:59:48.835Z,75.14
2022-08-03T03:02:20.308Z,75.37
2022-08-03T03:05:50.559Z,76.71
2022-08-03T03:07:52.178Z,76.46
2022-08-03T03:10:25.904Z,76.25
2022-08-03T03:12:57.302Z,75.59
2022-08-03T03:15:27.101Z,74.98
2022-08-03T03:17:57.664Z,74.66
2022-08-03T03:20:30.646Z,74.88
2022-08-03T03:23:01.167Z,74.32
2022-08-03T03:25:31.778Z,74.21
2022-08-03T03:28:00.534Z,74.18
2022-08-03T03:30:30.044Z,74.56
2022-08-03T03:33:00.757Z,75.81
2022-08-03T03:35:29.555Z,76.88
2022-08-03T03:37:58.139Z,75.86
2022-08-03T03:40:26.445Z,76.88
2022-08-03T03:42:54.654Z,76.30
2022-08-03T03:45:23.232Z,76.09
2022-08-03T03:47:51.659Z,76.28
2022-08-03T03:50:23.558Z,76.32
2022-08-03T03:52:51.725Z,76.79
2022-08-03T03:55:21.837Z,76.99
2022-08-03T03:57:49.946Z,76.55
2022-08-03T04:00:19.803Z,73.39
2022-08-03T04:02:51.752Z,74.33
2022-08-03T04:05:42.916Z,74.01
2022-08-03T04:08:33.104Z,72.82
2022-08-03T04:11:12.833Z,73.28
2022-08-03T04:13:43.651Z,73.43
2022-08-03T04:16:15.828Z,74.11
2022-08-03T04:18:48.509Z,74.82
2022-08-03T04:21:20.962Z,74.70
2022-08-03T04:23:52.109Z,74.84
2022-08-03T04:26:22.733Z,74.37
2022-08-03T04:28:53.311Z,74.45
2022-08-03T04:31:24.267Z,74.17
2022-08-03T04:33:54.086Z,72.79
2022-08-03T04:36:26.851Z,71.17
2022-08-03T04:39:00.377Z,71.72
2022-08-03T04:41:29.517Z,71.37
2022-08-03T04:44:00.342Z,71.62
2022-08-03T04:46:33.955Z,71.45
2022-08-03T04:49:02.791Z,71.47
2022-08-03T04:51:34.793Z,71.40
2022-08-03T04:54:03.793Z,71.02
2022-08-03T04:56:32.386Z,71.37
2022-08-03T04:59:00.614Z,70.92
2022-08-03T05:01:32.776Z,71.40
2022-08-03T05:04:01.048Z,72.65
2022-08-03T05:06:29.142Z,72.38
2022-08-03T05:08:58.691Z,71.17
2022-08-03T05:11:27.240Z,71.49
2022-08-03T05:13:55.293Z,69.85
2022-08-03T05:16:23.653Z,69.82
2022-08-03T05:18:51.738Z,70.23
2022-08-03T05:21:19.915Z,67.63
2022-08-03T05:23:48.012Z,66.28
2022-08-03T05:26:18.519Z,65.74
2022-08-03T05:28:51.422Z,66.00
2022-08-03T05:31:22.337Z,65.60
2022-08-03T05:33:50.705Z,63.51
2022-08-03T05:36:18.816Z,63.36
2022-08-03T05:38:47.052Z,62.52
2022-08-03T05:41:22.724Z,62.53
2022-08-03T05:43:55.164Z,60.78
2022-08-03T05:46:24.375Z,60.32
2022-08-03T05:48:52.799Z,61.95
2022-08-03T05:51:21.202Z,62.70
2022-08-03T05:53:49.717Z,60.67
2022-08-03T05:56:18.007Z,61.40
2022-08-03T05:58:47.997Z,60.88
2022-08-03T06:01:18.377Z,60.68
2022-08-03T06:03:46.915Z,60.54
2022-08-03T06:06:15.282Z,60.10
2022-08-03T06:08:44.634Z,60.88
2022-08-03T06:11:12.937Z,59.40
2022-08-03T06:13:42.133Z,59.20
2022-08-03T06:16:11.208Z,59.97
2022-08-03T06:18:41.667Z,59.26
2022-08-03T06:21:15.562Z,59.94
2022-08-03T06:23:52.545Z,58.76
2022-08-03T06:26:28.771Z,57.75
2022-08-03T06:28:57.406Z,58.21
2022-08-03T06:31:33.054Z,56.68
2022-08-03T06:34:33.306Z,57.44
2022-08-03T06:36:53.357Z,56.63
2022-08-03T06:39:23.682Z,55.96
2022-08-03T06:41:53.555Z,56.23
2022-08-03T06:44:21.700Z,56.79
2022-08-03T06:46:50.037Z,55.52
2022-08-03T06:49:20.132Z,56.13
2022-08-03T06:52:05.109Z,54.39
2022-08-03T06:54:37.474Z,54.27
2022-08-03T06:57:06.689Z,54.47
2022-08-03T07:00:09.353Z,54.26
2022-08-03T07:02:23.685Z,54.33
2022-08-03T07:04:53.447Z,54.28
2022-08-03T07:07:21.828Z,55.60
2022-08-03T07:09:57.088Z,55.02
2022-08-03T07:12:27.748Z,53.54
2022-08-03T07:15:01.230Z,54.13
2022-08-03T07:17:31.447Z,53.59
2022-08-03T07:20:02.555Z,54.04
2022-08-03T07:22:30.727Z,53.38
2022-08-03T07:24:59.331Z,53.77
2022-08-03T07:27:28.791Z,52.68
2022-08-03T07:29:57.415Z,52.55
2022-08-03T07:32:26.165Z,52.32
2022-08-03T07:34:58.489Z,51.83
2022-08-03T07:37:30.857Z,50.49
2022-08-03T07:39:59.456Z,51.88
2022-08-03T07:42:28.255Z,50.43
2022-08-03T07:44:57.087Z,50.51
2022-08-03T07:47:34.848Z,51.06
2022-08-03T07:50:06.475Z,51.73
2022-08-03T07:52:51.856Z,50.65
2022-08-03T07:55:21.444Z,49.37
2022-08-03T07:58:04.796Z,49.53
2022-08-03T08:00:34.067Z,49.01
2022-08-03T08:03:02.583Z,49.12
2022-08-03T08:05:30.952Z,49.09
2022-08-03T08:08:00.649Z,51.10
2022-08-03T08:10:30.034Z,49.22
2022-08-03T08:12:58.642Z,49.21
2022-08-03T08:15:26.967Z,48.94
2022-08-03T08:17:56.633Z,47.21
2022-08-03T08:20:31.427Z,47.25
2022-08-03T08:23:02.106Z,46.46
2022-08-03T08:25:32.952Z,47.58
2022-08-03T08:28:31.173Z,47.68
2022-08-03T08:30:51.982Z,45.84
2022-08-03T08:33:23.327Z,45.54
2022-08-03T08:35:54.323Z,46.35
2022-08-03T08:38:24.486Z,45.72
2022-08-03T08:40:53.252Z,44.96
2022-08-03T08:43:23.923Z,44.82
2022-08-03T08:45:57.601Z,44.21
2022-08-03T08:48:27.254Z,44.97
2022-08-03T08:50:56.756Z,44.04
2022-08-03T08:53:28.845Z,42.95
2022-08-03T08:56:01.648Z,43.21
2022-08-03T08:58:38.039Z,43.75
2022-08-03T09:01:07.463Z,42.96
2022-08-03T09:03:37.871Z,42.77
2022-08-03T09:06:06.879Z,42.67
2022-08-03T09:08:38.744Z,43.67
2022-08-03T09:11:07.626Z,43.04
2022-08-03T09:13:36.782Z,42.25
2022-08-03T09:16:13.879Z,42.15
2022-08-03T09:18:43.581Z,41.89
2022-08-03T09:21:30.685Z,40.18
2022-08-03T09:24:05.266Z,40.45
2022-08-03T09:26:36.456Z,41.84
2022-08-03T09:29:12.840Z,40.27
2022-08-03T09:31:43.913Z,39.98
2022-08-03T09:34:15.846Z,38.78
2022-08-03T09:36:46.558Z,39.09
2022-08-03T09:39:17.522Z,38.05
2022-08-03T09:41:47.451Z,39.66
2022-08-03T09:44:25.843Z,40.52
2022-08-03T09:46:56.139Z,39.92
2022-08-03T09:49:25.181Z,39.87
2022-08-03T09:52:32.222Z,39.14
2022-08-03T09:54:44.509Z,40.41
2022-08-03T09:57:24.043Z,39.32
2022-08-03T10:00:01.882Z,38.87
2022-08-03T10:02:42.127Z,40.18
2022-08-03T10:05:17.546Z,38.40
2022-08-03T10:07:49.656Z,38.28
2022-08-03T10:10:31.740Z,37.40
2022-08-03T10:13:02.258Z,37.11
2022-08-03T10:16:21.661Z,38.02
2022-08-03T10:18:19.471Z,36.86
2022-08-03T10:20:53.209Z,36.84
2022-08-03T10:23:22.643Z,36.48
2022-08-03T10:25:59.264Z,35.51
2022-08-03T10:28:35.010Z,35.21
2022-08-03T10:31:07.767Z,35.98
2022-08-03T10:33:49.552Z,35.90
2022-08-03T10:36:23.536Z,35.52
2022-08-03T10:38:53.989Z,34.95
2022-08-03T10:41:27.211Z,35.68
2022-08-03T10:43:59.942Z,35.68
2022-08-03T10:46:29.846Z,37.48
2022-08-03T10:48:59.625Z,36.56
2022-08-03T10:51:32.377Z,36.91
2022-08-03T10:54:02.103Z,36.97
2022-08-03T10:57:12.411Z,38.48
2022-08-03T11:00:07.498Z,39.68
2022-08-03T11:03:08.860Z,38.95
2022-08-03T11:05:43.836Z,40.13
2022-08-03T11:08:29.376Z,39.92
2022-08-03T11:11:01.839Z,40.90
2022-08-03T11:13:34.094Z,40.24
2022-08-03T11:16:21.890Z,41.40
2022-08-03T11:18:58.115Z,40.14
2022-08-03T11:21:59.885Z,39.52
2022-08-03T11:25:01.999Z,40.77
2022-08-03T11:27:33.549Z,38.69
2022-08-03T11:30:07.577Z,38.94
2022-08-03T11:33:01.454Z,39.60
2022-08-03T11:35:31.648Z,38.13
2022-08-03T11:38:10.970Z,39.52
2022-08-03T11:40:42.954Z,38.64
2022-08-03T11:43:34.908Z,38.82
2022-08-03T11:46:06.170Z,36.56
2022-08-03T11:48:37.478Z,37.75
2022-08-03T11:51:08.298Z,38.74
2022-08-03T11:53:41.730Z,38.93
2022-08-03T11:56:12.804Z,38.68
2022-08-03T11:59:01.264Z,40.84
2022-08-03T12:01:41.868Z,38.65
2022-08-03T12:04:14.158Z,39.21
2022-08-03T12:06:55.566Z,38.84
2022-08-03T12:09:24.006Z,39.08
2022-08-03T12:11:56.149Z,37.31
2022-08-03T12:14:49.019Z,38.00
2022-08-03T12:17:20.635Z,36.86
2022-08-03T12:19:49.236Z,36.56
2022-08-03T12:22:18.001Z,37.70
2022-08-03T12:24:47.570Z,36.75
2022-08-03T12:27:24.626Z,37.66
2022-08-03T12:29:58.142Z,35.24
2022-08-03T12:32:29.712Z,36.17
2022-08-03T12:35:01.066Z,34.22
2022-08-03T12:37:32.985Z,33.91
2022-08-03T12:40:10.168Z,33.02
2022-08-03T12:42:40.652Z,34.57
2022-08-03T12:45:22.715Z,33.42
2022-08-03T12:47:54.926Z,33.05
2022-08-03T12:50:31.308Z,33.15
2022-08-03T12:53:03.555Z,33.42
2022-08-03T12:55:56.388Z,35.32
2022-08-03T12:58:34.564Z,35.11
2022-08-03T13:01:10.294Z,33.69
2022-08-03T13:03:49.602Z,34.45
2022-08-03T13:06:20.542Z,34.71
2022-08-03T13:08:49.643Z,34.62
2022-08-03T13:11:22.457Z,34.31
2022-08-03T13:13:51.273Z,35.48
2022-08-03T13:16:19.624Z,34.57
2022-08-03T13:18:51.738Z,35.56
2022-08-03T13:21:20.922Z,34.97
2022-08-03T13:23:49.071Z,34.21
2022-08-03T13:26:17.233Z,34.31
2022-08-03T13:28:45.349Z,33.21
2022-08-03T13:31:13.753Z,33.73
2022-08-03T13:33:43.030Z,33.77
2022-08-03T13:36:12.863Z,32.94
2022-08-03T13:38:41.096Z,31.82
2022-08-03T13:41:09.568Z,32.20
2022-08-03T13:43:40.221Z,33.48
2022-08-03T13:46:08.410Z,32.54
2022-08-03T13:48:37.561Z,32.40
2022-08-03T13:51:22.103Z,32.64
2022-08-03T13:53:53.608Z,31.82
2022-08-03T13:56:21.811Z,31.58
2022-08-03T13:58:50.096Z,31.84
2022-08-03T14:01:29.733Z,31.82
2022-08-03T14:04:15.866Z,31.28
2022-08-03T14:06:50.470Z,30.86
2022-08-03T14:09:20.009Z,31.84
2022-08-03T14:12:04.067Z,31.77
2022-08-03T14:14:36.820Z,33.16
2022-08-03T14:17:05.355Z,33.88
2022-08-03T14:19:33.794Z,33.14
2022-08-03T14:22:21.173Z,34.99
2022-08-03T14:24:52.284Z,35.68
2022-08-03T14:27:21.404Z,35.42
2022-08-03T14:29:49.894Z,35.46
2022-08-03T14:32:18.093Z,35.81
2022-08-03T14:34:46.312Z,34.63
2022-08-03T14:37:14.713Z,34.78
2022-08-03T14:40:00.260Z,35.34
2022-08-03T14:42:30.360Z,34.36
2022-08-03T14:45:03.463Z,35.00
2022-08-03T14:47:34.375Z,33.54
2022-08-03T14:50:36.115Z,35.17
2022-08-03T14:53:08.902Z,33.97
2022-08-03T14:55:38.047Z,36.03
2022-08-03T14:58:19.987Z,35.28
2022-08-03T15:00:50.550Z,34.36
2022-08-03T15:03:20.511Z,34.74
2022-08-03T15:05:48.965Z,35.69
2022-08-03T15:08:17.220Z,35.93
2022-08-03T15:10:45.716Z,35.94
2022-08-03T15:13:15.475Z,34.68
2022-08-03T15:15:43.939Z,35.32
2022-08-03T15:18:12.466Z,34.37
2022-08-03T15:20:45.833Z,34.99
2022-08-03T15:23:15.877Z,35.68
2022-08-03T15:26:32.048Z,35.43
2022-08-03T15:28:34.359Z,34.86
2022-08-03T15:31:05.665Z,34.87
2022-08-03T15:33:34.662Z,34.89
2022-08-03T15:36:04.158Z,35.51
2022-08-03T15:38:36.241Z,35.12
2022-08-03T15:41:04.546Z,36.57
2022-08-03T15:43:34.324Z,34.41
2022-08-03T15:46:28.615Z,34.30
2022-08-03T15:48:56.748Z,34.76
2022-08-03T15:51:25.224Z,34.95
2022-08-03T15:53:53.314Z,35.72
2022-08-03T15:56:25.468Z,34.18
2022-08-03T15:59:11.424Z,35.60
2022-08-03T16:01:42.559Z,35.93
2022-08-03T16:04:10.762Z,36.61
2022-08-03T16:06:39.291Z,34.55
2022-08-03T16:09:24.069Z,34.58
2022-08-03T16:11:56.892Z,34.82
2022-08-03T16:14:34.805Z,34.97
2022-08-03T16:17:08.215Z,35.58
2022-08-03T16:19:36.577Z,34.93
2022-08-03T16:22:06.964Z,36.19
2022-08-03T16:24:35.125Z,34.78
2022-08-03T16:27:06.154Z,35.35
2022-08-03T16:29:45.128Z,35.70
2022-08-03T16:32:13.536Z,36.54
2022-08-03T16:34:44.078Z,35.04
2022-08-03T16:37:37.107Z,35.59
2022-08-03T16:40:02.564Z,34.65
2022-08-03T16:42:30.924Z,36.30
2022-08-03T16:45:00.361Z,34.95
2022-08-03T16:47:28.759Z,37.62
2022-08-03T16:49:58.161Z,37.30
2022-08-03T16:52:28.086Z,35.92
2022-08-03T16:54:56.496Z,36.09
2022-08-03T16:57:58.153Z,35.88
2022-08-03T17:00:34.074Z,35.06
2022-08-03T17:03:18.803Z,34.38
2022-08-03T17:05:50.133Z,34.78
2022-08-03T17:08:26.440Z,35.33
2022-08-03T17:10:56.874Z,35.03
2022-08-03T17:13:27.602Z,37.64
2022-08-03T17:16:12.241Z,36.86
2022-08-03T17:18:48.256Z,37.78
2022-08-03T17:21:18.601Z,37.42
2022-08-03T17:23:56.049Z,37.12
2022-08-03T17:26:28.538Z,37.99
2022-08-03T17:29:11.096Z,38.73
2022-08-03T17:31:49.469Z,37.86
2022-08-03T17:34:18.914Z,37.88
2022-08-03T17:37:03.831Z,36.90
2022-08-03T17:39:57.627Z,37.63
2022-08-03T17:42:30.404Z,37.70
2022-08-03T17:45:07.135Z,37.10
2022-08-03T17:47:41.785Z,37.78
2022-08-03T17:50:24.341Z,37.75
2022-08-03T17:52:57.219Z,37.91
2022-08-03T17:55:54.863Z,38.43
2022-08-03T17:58:24.223Z,38.76
2022-08-03T18:02:04.348Z,38.91
2022-08-03T18:04:10.719Z,38.81
2022-08-03T18:06:55.744Z,37.47
2022-08-03T18:10:05.183Z,37.59
2022-08-03T18:12:27.307Z,37.32
2022-08-03T18:15:01.128Z,36.67
2022-08-03T18:17:55.393Z,36.09
2022-08-03T18:20:32.774Z,35.92
2022-08-03T18:23:08.339Z,35.38
2022-08-03T18:25:45.580Z,35.44
2022-08-03T18:28:23.162Z,34.94
2022-08-03T18:34:16.523Z,35.00
2022-08-03T18:36:40.005Z,35.15
2022-08-03T18:39:11.821Z,35.05
2022-08-03T18:41:42.123Z,35.11
2022-08-03T18:44:53.161Z,35.18
2022-08-03T18:47:20.308Z,35.10
2022-08-03T18:50:01.810Z,34.95
2022-08-03T18:55:33.147Z,37.27
2022-08-03T18:58:18.057Z,36.81
2022-08-03T19:02:00.087Z,37.07
2022-08-03T19:04:14.686Z,37.66
2022-08-03T19:06:47.216Z,38.66
2022-08-03T19:09:28.977Z,38.80
2022-08-03T19:12:11.059Z,39.44
2022-08-03T19:14:47.359Z,39.94
2022-08-03T19:17:21.306Z,40.31
2022-08-03T19:19:52.053Z,39.97
2022-08-03T19:22:21.723Z,41.03
2022-08-03T19:24:55.213Z,43.03
2022-08-03T19:27:26.910Z,43.22
2022-08-03T19:30:01.874Z,42.80
2022-08-03T19:32:34.112Z,41.12
2022-08-03T19:35:04.661Z,43.50
2022-08-03T19:37:45.490Z,43.10
2022-08-03T19:40:15.326Z,44.94
2022-08-03T19:42:51.491Z,40.69
2022-08-03T19:45:52.695Z,40.47
2022-08-03T19:48:22.187Z,40.24
2022-08-03T19:50:54.291Z,39.72
2022-08-03T19:53:35.434Z,39.42
2022-08-03T19:56:09.075Z,42.04
2022-08-03T19:58:39.045Z,43.79
2022-08-03T20:01:21.159Z,39.41
2022-08-03T20:03:51.788Z,39.15
2022-08-03T20:06:23.652Z,38.69
2022-08-03T20:08:52.482Z,40.27
2022-08-03T20:11:28.728Z,39.21
2022-08-03T20:13:58.757Z,41.34
2022-08-03T20:16:28.212Z,42.14
2022-08-03T20:18:56.794Z,41.79
2022-08-03T20:21:28.505Z,40.89
2022-08-03T20:24:23.679Z,41.15
2022-08-03T20:26:55.348Z,41.44
2022-08-03T20:30:05.131Z,43.15
2022-08-03T20:32:24.687Z,44.54
2022-08-03T20:34:53.398Z,43.79
2022-08-03T20:37:21.665Z,41.31
2022-08-03T20:39:50.058Z,40.85
2022-08-03T20:42:21.560Z,41.40
2022-08-03T20:45:06.368Z,42.83
2022-08-03T20:47:50.979Z,42.63
2022-08-03T20:50:22.131Z,44.26
2022-08-03T20:52:51.007Z,43.77
2022-08-03T20:58:10.820Z,43.77
2022-08-03T21:00:42.233Z,44.03
2022-08-03T21:03:11.494Z,44.90
2022-08-03T21:05:51.094Z,45.33
2022-08-03T21:08:21.499Z,46.28
2022-08-03T21:10:52.956Z,47.13
2022-08-03T21:12:58.149Z,34.93
2022-08-03T21:13:00.669Z,35.43
2022-08-03T21:13:14.224Z,43.33
2022-08-03T21:13:27.561Z,46.71
2022-08-03T21:16:12.686Z,46.12
2022-08-03T21:18:46.932Z,48.69
2022-08-03T21:21:17.162Z,49.50
2022-08-03T21:23:49.152Z,48.95
2022-08-03T21:26:18.631Z,50.48
2022-08-03T21:28:49.687Z,50.21
2022-08-03T21:31:24.387Z,50.40
2022-08-03T21:33:56.661Z,48.41
2022-08-03T21:36:26.472Z,51.51
2022-08-03T21:38:57.544Z,47.32
2022-08-03T21:41:27.052Z,48.64
2022-08-03T21:43:57.139Z,47.77
2022-08-03T21:46:27.908Z,50.19
2022-08-03T21:50:04.710Z,49.53
2022-08-03T21:51:52.741Z,49.62
2022-08-03T21:54:21.809Z,50.32
2022-08-03T21:56:53.925Z,52.02
2022-08-03T21:59:24.799Z,50.71
2022-08-03T22:01:58.531Z,48.99
2022-08-03T22:04:50.375Z,50.14
2022-08-03T22:07:16.238Z,51.21
2022-08-03T22:09:51.221Z,51.78
2022-08-03T22:12:22.199Z,51.08
2022-08-03T22:15:01.242Z,51.50
2022-08-03T22:17:55.571Z,53.13
2022-08-03T22:20:20.658Z,51.45
2022-08-03T22:22:55.776Z,51.56
2022-08-03T22:25:29.370Z,50.12
2022-08-03T22:27:59.019Z,48.34
2022-08-03T22:30:29.541Z,47.99
2022-08-03T22:32:59.023Z,51.13
2022-08-03T22:35:28.754Z,50.59
2022-08-03T22:37:58.577Z,49.08
2022-08-03T22:40:27.802Z,50.48
2022-08-03T22:42:56.372Z,52.12
2022-08-03T22:45:45.868Z,50.49
2022-08-03T22:48:17.990Z,52.14
2022-08-03T22:50:47.373Z,53.67
2022-08-03T22:53:20.641Z,53.99
2022-08-03T22:55:50.408Z,54.84
2022-08-03T22:58:20.911Z,53.63
2022-08-03T23:00:54.133Z,54.34
2022-08-03T23:03:26.124Z,54.30
2022-08-03T23:06:16.361Z,55.30
2022-08-03T23:08:48.089Z,54.74
2022-08-03T23:11:21.667Z,54.64
2022-08-03T23:13:54.026Z,55.10
2022-08-03T23:16:28.934Z,56.53
2022-08-03T23:19:16.748Z,56.70
2022-08-03T23:21:59.649Z,55.91
2022-08-03T23:24:31.309Z,55.99
2022-08-03T23:26:59.485Z,56.42
2022-08-03T23:29:30.153Z,54.82
2022-08-03T23:31:59.440Z,55.90
2022-08-03T23:34:48.842Z,57.18
2022-08-03T23:37:17.799Z,58.10
2022-08-03T23:39:50.253Z,58.91
2022-08-03T23:42:21.363Z,59.38
2022-08-03T23:44:55.670Z,60.33
2022-08-03T23:47:24.466Z,59.79
2022-08-03T23:50:13.819Z,59.93
2022-08-03T23:52:51.354Z,59.48
2022-08-03T23:55:30.867Z,56.68
2022-08-03T23:58:05.008Z,57.94
